createdAt,value
2019-02-24T00:32:23.781Z,125.80
2019-02-24T00:34:54.868Z,148.93
2019-02-24T00:37:26.029Z,141.93
2019-02-24T00:39:57.273Z,164.67
2019-02-24T00:42:29.455Z,157.97
2019-02-24T00:45:03.809Z,169.00
2019-02-24T00:47:37.029Z,183.40
2019-02-24T00:50:11.641Z,189.03
2019-02-24T00:52:47.142Z,168.03
2019-02-24T00:55:23.505Z,171.97
2019-02-24T00:57:58.111Z,191.83
2019-02-24T01:00:34.163Z,197.17
2019-02-24T01:03:08.882Z,190.30
2019-02-24T01:05:43.084Z,170.80
2019-02-24T01:08:17.689Z,187.53
2019-02-24T01:10:51.639Z,167.83
2019-02-24T01:13:26.077Z,165.10
2019-02-24T01:16:03.763Z,166.10
2019-02-24T01:18:40.271Z,180.23
2019-02-24T01:21:12.605Z,167.67
2019-02-24T01:23:46.430Z,188.10
2019-02-24T01:26:23.072Z,180.47
2019-02-24T01:28:57.610Z,155.77
2019-02-24T01:31:32.332Z,200.60
2019-02-24T01:34:04.337Z,182.30
2019-02-24T01:36:36.325Z,183.83
2019-02-24T01:39:07.740Z,185.30
2019-02-24T01:41:38.791Z,169.10
2019-02-24T01:44:09.862Z,149.33
2019-02-24T01:46:40.868Z,171.43
2019-02-24T01:49:11.939Z,178.60
2019-02-24T01:51:42.991Z,184.47
2019-02-24T01:54:14.089Z,200.40
2019-02-24T01:56:45.147Z,171.73
2019-02-24T01:59:16.231Z,203.77
2019-02-24T02:01:47.298Z,203.20
2019-02-24T02:04:18.353Z,213.07
2019-02-24T02:06:49.369Z,226.87
2019-02-24T02:09:20.436Z,191.80
2019-02-24T02:11:51.439Z,192.87
2019-02-24T02:14:22.518Z,214.17
2019-02-24T02:16:53.523Z,202.60
2019-02-24T02:19:24.582Z,277.83
2019-02-24T02:21:55.625Z,258.87
2019-02-24T02:24:26.722Z,218.27
2019-02-24T02:26:57.884Z,194.53
2019-02-24T02:29:29.025Z,232.37
2019-02-24T02:32:00.086Z,216.90
2019-02-24T02:34:31.155Z,224.73
2019-02-24T02:37:02.166Z,220.87
2019-02-24T02:39:33.228Z,226.90
2019-02-24T02:42:04.253Z,199.20
2019-02-24T02:44:35.316Z,225.40
2019-02-24T02:47:06.608Z,207.13
2019-02-24T02:49:37.655Z,217.13
2019-02-24T02:52:08.657Z,233.77
2019-02-24T02:54:39.664Z,212.90
2019-02-24T02:57:10.699Z,218.90
2019-02-24T02:59:41.727Z,228.53
2019-02-24T03:02:12.729Z,220.43
2019-02-24T03:04:43.766Z,206.47
2019-02-24T03:07:23.082Z,204.90
2019-02-24T03:09:54.115Z,194.90
2019-02-24T03:12:25.110Z,179.27
2019-02-24T05:55:42.149Z,150.03
2019-02-24T05:58:13.694Z,164.77
2019-02-24T06:00:45.185Z,190.90
2019-02-24T06:03:16.917Z,208.80
2019-02-24T06:05:48.469Z,223.53
2019-02-24T06:08:19.900Z,226.67
2019-02-24T06:10:51.574Z,211.23
2019-02-24T06:13:23.108Z,280.97
2019-02-24T06:15:54.593Z,284.63
2019-02-24T06:18:26.032Z,223.03
2019-02-24T06:20:57.408Z,247.80
2019-02-24T06:23:28.827Z,262.13
2019-02-24T06:26:00.570Z,250.60
2019-02-24T06:28:32.018Z,273.27
2019-02-24T06:31:03.676Z,248.53
2019-02-24T06:33:35.220Z,255.40
2019-02-24T06:36:06.690Z,279.93
2019-02-24T06:38:38.169Z,265.13
2019-02-24T06:41:09.993Z,253.13
2019-02-24T06:43:41.639Z,267.83
2019-02-24T06:46:13.131Z,278.27
2019-02-24T06:48:44.553Z,289.83
2019-02-24T06:51:17.088Z,309.80
2019-02-24T06:53:48.596Z,283.23
2019-02-24T06:56:19.955Z,292.03
2019-02-24T06:58:51.552Z,282.43
2019-02-24T07:01:23.120Z,368.50
2019-02-24T07:03:54.673Z,358.67
2019-02-24T07:06:25.956Z,361.60
2019-02-24T07:08:57.101Z,351.17
2019-02-24T07:11:28.216Z,359.97
2019-02-24T07:13:59.298Z,386.07
2019-02-24T07:16:30.569Z,361.53
2019-02-24T07:19:01.696Z,346.23
2019-02-24T07:21:32.858Z,354.60
2019-02-24T07:24:04.014Z,329.33
2019-02-24T07:26:35.236Z,379.73
2019-02-24T07:29:06.368Z,354.83
2019-02-24T07:31:37.690Z,373.33
2019-02-24T07:34:27.917Z,334.80
2019-02-24T07:36:59.037Z,295.17
2019-02-24T07:39:31.001Z,308.47
2019-02-24T07:42:02.279Z,304.53
2019-02-24T07:44:33.465Z,325.30
2019-02-24T07:47:05.113Z,314.27
2019-02-24T07:49:37.199Z,340.80
2019-02-24T07:52:08.703Z,324.67
2019-02-24T07:54:39.978Z,316.63
2019-02-24T07:57:11.223Z,307.73
2019-02-24T07:59:43.773Z,283.93
2019-02-24T08:02:15.186Z,288.17
2019-02-24T08:04:46.415Z,291.37
2019-02-24T08:07:21.458Z,291.73
2019-02-24T08:09:52.665Z,286.23
2019-02-24T08:12:23.922Z,286.63
2019-02-24T08:14:55.235Z,306.50
2019-02-24T08:17:27.298Z,300.53
2019-02-24T08:19:58.504Z,326.37
2019-02-24T08:22:30.364Z,313.00
2019-02-24T08:25:01.752Z,308.63
2019-02-24T08:27:33.248Z,315.50
2019-02-24T08:30:06.039Z,305.00
2019-02-24T08:32:38.744Z,304.33
2019-02-24T08:35:12.201Z,282.93
2019-02-24T08:37:43.828Z,288.50
2019-02-24T08:40:15.062Z,286.73
2019-02-24T08:42:46.594Z,278.40
2019-02-24T08:45:18.091Z,322.40
2019-02-24T08:47:49.735Z,303.83
2019-02-24T08:50:21.066Z,253.07
2019-02-24T08:52:54.145Z,279.63
2019-02-24T08:55:25.481Z,188.23
2019-02-24T08:57:56.944Z,211.20
2019-02-24T09:00:28.312Z,221.23
2019-02-24T09:02:59.888Z,220.47
2019-02-24T09:05:32.043Z,196.73
2019-02-24T09:08:03.262Z,207.47
2019-02-24T09:10:34.573Z,218.17
2019-02-24T09:13:05.797Z,227.03
2019-02-24T09:15:37.240Z,204.30
2019-02-24T09:18:08.324Z,214.67
2019-02-24T09:20:39.837Z,213.03
2019-02-24T09:23:10.899Z,230.07
2019-02-24T09:25:43.900Z,213.17
2019-02-24T09:28:15.000Z,291.50
2019-02-24T09:30:47.092Z,177.47
2019-02-24T09:33:18.209Z,112.47
2019-02-24T09:35:51.662Z,125.73
2019-02-24T09:38:22.515Z,142.77
2019-02-24T09:40:53.628Z,127.83
2019-02-24T09:43:24.941Z,123.70
2019-02-24T09:45:57.014Z,107.10
2019-02-24T09:48:29.369Z,131.10
2019-02-24T09:51:01.083Z,206.30
2019-02-24T09:53:34.418Z,113.43
2019-02-24T09:56:06.124Z,125.43
2019-02-24T09:58:38.456Z,116.30
2019-02-24T10:01:10.871Z,196.67
2019-02-24T10:03:42.327Z,137.53
2019-02-24T10:06:13.817Z,170.17
2019-02-24T10:08:44.999Z,149.03
2019-02-24T10:11:17.094Z,153.83
2019-02-24T10:13:51.254Z,100.97
2019-02-24T10:16:25.717Z,104.93
2019-02-24T10:19:02.754Z,111.00
2019-02-24T10:21:40.430Z,143.90
2019-02-24T10:24:13.180Z,77.93
2019-02-24T10:26:44.377Z,102.33
2019-02-24T10:29:15.730Z,80.00
2019-02-24T10:31:48.104Z,67.10
2019-02-24T10:34:19.483Z,79.37
2019-02-24T10:36:51.790Z,116.47
2019-02-24T10:39:29.472Z,85.50
2019-02-24T10:41:55.930Z,95.57
2019-02-24T10:44:28.991Z,164.57
2019-02-24T10:47:03.833Z,105.90
2019-02-24T10:49:35.490Z,101.43
2019-02-24T10:52:06.776Z,98.73
2019-02-24T10:54:38.922Z,92.57
2019-02-24T10:57:13.030Z,68.67
2019-02-24T10:59:43.622Z,47.93
2019-02-24T11:02:14.705Z,41.97
2019-02-24T11:04:49.214Z,57.63
2019-02-24T11:07:27.735Z,62.07
2019-02-24T11:10:05.165Z,59.67
2019-02-24T11:12:39.513Z,101.43
2019-02-24T11:15:14.414Z,79.40
2019-02-24T11:17:47.328Z,43.37
2019-02-24T11:20:24.591Z,51.90
2019-02-24T11:22:57.181Z,30.73
2019-02-24T11:25:31.864Z,37.07
2019-02-24T11:28:04.079Z,38.57
2019-02-24T11:30:36.477Z,34.50
2019-02-24T11:33:09.837Z,37.83
2019-02-24T11:35:41.614Z,33.10
2019-02-24T11:38:14.336Z,25.90
2019-02-24T11:40:46.137Z,26.13
2019-02-24T11:43:17.393Z,36.77
2019-02-24T11:45:48.697Z,51.10
2019-02-24T11:48:20.387Z,22.70
2019-02-24T11:50:54.231Z,24.37
2019-02-24T11:53:26.982Z,26.50
2019-02-24T11:55:58.496Z,29.40
2019-02-24T11:58:30.224Z,32.47
2019-02-24T12:01:01.539Z,33.00
2019-02-24T12:03:32.929Z,39.93
2019-02-24T12:06:05.233Z,39.30
2019-02-24T12:08:36.479Z,36.73
2019-02-24T12:11:09.154Z,34.77
2019-02-24T12:13:40.627Z,39.13
2019-02-24T12:16:11.907Z,45.63
2019-02-24T12:18:43.246Z,41.73
2019-02-24T12:21:15.083Z,54.70
2019-02-24T12:23:46.275Z,61.47
2019-02-24T12:26:17.598Z,34.73
2019-02-24T12:28:51.475Z,41.77
2019-02-24T12:31:28.088Z,50.50
2019-02-24T12:34:01.818Z,28.90
2019-02-24T12:36:36.637Z,30.50
2019-02-24T12:39:10.775Z,40.70
2019-02-24T12:41:46.008Z,156.07
2019-02-24T12:44:18.375Z,179.93
2019-02-24T12:46:53.887Z,181.83
2019-02-24T12:49:28.921Z,260.83
2019-02-24T12:52:05.034Z,770.77
2019-02-24T12:54:42.413Z,342.00
2019-02-24T12:57:20.738Z,237.03
2019-02-24T12:59:54.364Z,155.23
2019-02-24T13:02:30.220Z,181.87
2019-02-24T13:05:01.537Z,84.83
2019-02-24T13:07:34.694Z,76.90
2019-02-24T13:10:14.208Z,96.93
2019-02-24T13:12:47.694Z,125.53
2019-02-24T13:15:22.246Z,65.87
2019-02-24T13:17:56.419Z,91.60
2019-02-24T13:20:27.627Z,89.73
2019-02-24T13:22:58.764Z,103.20
2019-02-24T13:25:29.929Z,77.37
2019-02-24T13:28:01.080Z,67.33
2019-02-24T13:30:32.142Z,820.73
2019-02-24T13:33:07.393Z,860.80
2019-02-24T13:35:38.063Z,827.07
2019-02-24T13:38:11.082Z,741.70
2019-02-24T13:40:42.338Z,551.40
2019-02-24T13:43:16.673Z,627.63
2019-02-24T13:45:48.907Z,927.80
2019-02-24T13:48:22.017Z,956.60
2019-02-24T13:50:53.119Z,999.90
2019-02-24T13:53:38.145Z,996.37
2019-02-24T13:56:09.856Z,881.77
2019-02-24T13:58:41.565Z,936.80
2019-02-24T14:01:12.662Z,996.93
2019-02-24T14:03:49.519Z,990.03
2019-02-24T14:06:20.576Z,999.90
2019-02-24T14:08:52.814Z,999.90
2019-02-24T14:11:25.024Z,999.90
2019-02-24T14:14:00.040Z,999.90
2019-02-24T14:16:33.029Z,999.90
2019-02-24T14:19:05.535Z,999.90
2019-02-24T14:21:41.429Z,999.90
2019-02-24T14:24:13.025Z,999.90
2019-02-24T14:26:46.413Z,999.90
2019-02-24T14:29:17.589Z,999.90
2019-02-24T14:31:52.433Z,999.90
2019-02-24T14:34:25.249Z,999.90
2019-02-24T14:36:56.300Z,999.90
2019-02-24T14:40:32.405Z,999.90
2019-02-24T14:43:03.820Z,999.90
2019-02-24T14:45:34.986Z,999.90
2019-02-24T14:48:27.923Z,999.90
2019-02-24T14:50:59.576Z,999.90
2019-02-24T14:53:31.931Z,999.90
2019-02-24T14:56:03.093Z,999.90
2019-02-24T14:58:34.192Z,999.90
2019-02-24T15:01:05.314Z,999.90
2019-02-24T15:03:36.602Z,999.90
2019-02-24T15:06:08.941Z,999.90
2019-02-24T15:08:40.038Z,999.90
2019-02-24T15:11:12.603Z,999.90
2019-02-24T15:13:46.162Z,999.90
2019-02-24T15:16:17.625Z,999.90
2019-02-24T15:18:56.605Z,999.90
2019-02-24T15:21:28.144Z,999.90
2019-02-24T15:23:59.275Z,999.90
2019-02-24T15:26:30.668Z,999.90
2019-02-24T15:29:01.741Z,999.90
2019-02-24T15:31:32.883Z,999.90
2019-02-24T15:34:04.196Z,999.90
2019-02-24T15:37:15.315Z,999.90
2019-02-24T15:39:46.790Z,999.90
2019-02-24T15:42:18.374Z,999.90
2019-02-24T15:44:49.502Z,999.90
2019-02-24T15:47:20.643Z,999.90
2019-02-24T15:49:51.763Z,999.90
2019-02-24T15:52:22.929Z,999.90
2019-02-24T15:54:54.939Z,999.90
2019-02-24T15:57:26.100Z,999.90
2019-02-24T15:59:57.194Z,999.90
2019-02-24T16:02:28.684Z,999.90
2019-02-24T16:05:04.615Z,999.90
2019-02-24T16:07:35.668Z,999.90
2019-02-24T16:10:08.833Z,999.90
2019-02-24T16:12:39.970Z,999.90
2019-02-24T16:15:13.774Z,999.90
2019-02-24T16:17:44.892Z,999.90
2019-02-24T16:20:19.814Z,999.90
2019-02-24T16:22:50.858Z,999.90
2019-02-24T16:25:21.960Z,999.90
2019-02-24T16:27:53.264Z,999.90
2019-02-24T16:30:29.433Z,999.90
2019-02-24T16:33:00.529Z,999.90
2019-02-24T16:35:36.453Z,999.90
2019-02-24T16:38:07.520Z,999.90
2019-02-24T16:40:38.682Z,999.80
2019-02-24T16:43:11.667Z,989.53
2019-02-24T16:45:45.235Z,975.77
2019-02-24T16:48:16.654Z,997.70
2019-02-24T16:50:48.486Z,988.37
2019-02-24T16:53:20.167Z,961.80
2019-02-24T16:55:51.583Z,959.23
2019-02-24T16:58:23.267Z,969.53
2019-02-24T17:00:54.596Z,953.73
2019-02-24T17:03:26.902Z,954.83
2019-02-24T17:05:59.908Z,944.80
2019-02-24T17:08:32.522Z,922.03
2019-02-24T17:11:07.367Z,924.13
2019-02-24T17:13:37.806Z,905.50
2019-02-24T17:16:09.247Z,890.80
2019-02-24T17:18:42.317Z,882.77
2019-02-24T17:21:14.267Z,999.90
2019-02-24T17:23:49.924Z,999.90
2019-02-24T17:26:21.625Z,999.90
2019-02-24T17:28:55.949Z,999.90
2019-02-24T17:31:30.610Z,999.90
2019-02-24T17:37:51.230Z,999.90
2019-02-24T17:40:22.811Z,999.90
2019-02-24T17:42:55.825Z,999.90
2019-02-24T17:45:27.558Z,999.90
2019-02-24T17:47:58.656Z,999.90
2019-02-24T17:50:29.817Z,999.90
2019-02-24T17:53:00.885Z,999.90
2019-02-24T17:55:32.624Z,999.90
2019-02-24T17:58:03.901Z,999.90
2019-02-24T18:00:37.309Z,999.90
2019-02-24T18:03:09.634Z,999.90
2019-02-24T18:05:41.876Z,999.90
2019-02-24T18:08:13.199Z,999.90
2019-02-24T18:10:44.635Z,999.90
2019-02-24T18:13:15.771Z,999.90
2019-02-24T18:15:47.302Z,999.90
2019-02-24T18:18:18.771Z,999.90
2019-02-24T18:20:50.238Z,999.90
2019-02-24T18:23:28.733Z,999.90
2019-02-24T18:26:00.295Z,999.90
2019-02-24T18:28:32.204Z,999.90
2019-02-24T18:31:03.480Z,999.90
2019-02-24T18:33:35.024Z,999.90
2019-02-24T18:36:06.212Z,999.90
2019-02-24T18:38:37.350Z,999.90
2019-02-24T18:41:08.511Z,999.90
2019-02-24T18:43:39.871Z,999.90
2019-02-24T18:46:13.149Z,999.90
2019-02-24T18:48:44.439Z,999.90
2019-02-24T18:51:18.457Z,999.90
2019-02-24T18:53:49.837Z,999.90
2019-02-24T18:56:22.749Z,999.90
2019-02-24T18:58:57.357Z,999.90
2019-02-24T19:01:30.786Z,999.90
2019-02-24T19:04:03.269Z,999.90
2019-02-24T19:06:39.205Z,999.90
2019-02-24T19:09:08.368Z,999.90
2019-02-24T19:11:39.567Z,999.90
2019-02-24T19:14:11.324Z,999.90
2019-02-24T19:16:43.235Z,999.90
2019-02-24T19:19:14.451Z,999.90
2019-02-24T19:21:46.018Z,999.90
2019-02-24T19:24:19.602Z,999.90
2019-02-24T19:26:53.596Z,995.90
2019-02-24T19:29:24.703Z,999.90
2019-02-24T19:31:57.308Z,985.30
2019-02-24T19:34:28.485Z,999.90
2019-02-24T19:37:00.852Z,999.90
2019-02-24T19:39:31.931Z,994.90
2019-02-24T19:42:03.070Z,986.40
2019-02-24T19:44:35.182Z,990.90
2019-02-24T19:47:06.424Z,967.10
2019-02-24T19:49:38.240Z,933.63
2019-02-24T19:52:09.422Z,960.20
2019-02-24T19:54:40.643Z,925.97
2019-02-24T19:57:11.965Z,951.07
2019-02-24T19:59:43.401Z,922.67
2019-02-24T20:02:14.497Z,938.10
2019-02-24T20:04:46.194Z,934.37
2019-02-24T20:07:17.301Z,934.93
2019-02-24T20:09:49.496Z,937.73
2019-02-24T20:12:20.587Z,938.57
2019-02-24T20:14:52.499Z,938.90
2019-02-24T20:17:23.610Z,911.33
2019-02-24T20:19:54.692Z,922.73
2019-02-24T20:22:25.782Z,907.60
2019-02-24T20:24:58.315Z,844.93
2019-02-24T20:27:30.452Z,854.33
2019-02-24T20:30:01.548Z,832.90
2019-02-24T20:32:32.708Z,851.30
2019-02-24T20:35:04.514Z,841.40
2019-02-24T20:37:35.636Z,860.27
2019-02-24T20:40:07.300Z,848.93
2019-02-24T20:42:38.540Z,826.33
2019-02-24T20:45:15.080Z,859.57
2019-02-24T20:47:47.779Z,887.40
2019-02-24T20:50:21.773Z,933.97
2019-02-24T20:52:53.088Z,941.83
2019-02-24T20:55:24.518Z,952.47
2019-02-24T20:57:55.660Z,972.07
2019-02-24T21:00:33.442Z,954.93
2019-02-24T21:03:09.065Z,995.93
2019-02-24T21:05:43.190Z,993.47
2019-02-24T21:08:15.810Z,999.90
2019-02-24T21:10:50.204Z,999.90
2019-02-24T21:13:24.558Z,999.90
2019-02-24T21:15:56.848Z,999.90
2019-02-24T21:18:35.913Z,999.90
2019-02-24T21:21:09.094Z,999.90
2019-02-24T21:23:42.118Z,999.90
2019-02-24T21:26:14.218Z,999.67
2019-02-24T21:28:46.581Z,999.90
2019-02-24T21:31:18.237Z,995.67
2019-02-24T21:33:49.545Z,996.50
2019-02-24T21:36:21.313Z,999.90
2019-02-24T21:38:52.452Z,999.90
2019-02-24T21:41:23.590Z,999.90
2019-02-24T21:43:55.005Z,999.90
2019-02-24T21:46:26.231Z,999.90
2019-02-24T21:48:57.378Z,999.90
2019-02-24T21:51:28.450Z,999.90
2019-02-24T21:53:59.596Z,999.90
2019-02-24T21:56:30.721Z,999.90
2019-02-24T21:59:03.709Z,999.90
2019-02-24T22:01:35.440Z,985.37
2019-02-24T22:04:06.614Z,991.70
2019-02-24T22:06:37.769Z,978.33
2019-02-24T22:09:13.141Z,986.43
2019-02-24T22:11:44.249Z,982.70
2019-02-24T22:14:15.397Z,995.43
2019-02-24T22:16:46.614Z,977.37
2019-02-24T22:19:17.744Z,987.57
2019-02-24T22:21:49.009Z,992.13
2019-02-24T22:24:20.105Z,991.60
2019-02-24T22:26:51.217Z,967.53
2019-02-24T22:29:23.099Z,971.20
2019-02-24T22:31:54.549Z,947.27
2019-02-24T22:34:25.898Z,964.07
2019-02-24T22:36:57.006Z,957.50
2019-02-24T22:39:28.955Z,962.97
2019-02-24T22:42:00.050Z,987.10
2019-02-24T22:44:31.265Z,999.27
2019-02-24T22:47:02.506Z,999.90
2019-02-24T22:49:34.551Z,993.20
2019-02-24T22:52:05.629Z,985.63
2019-02-24T22:54:36.792Z,934.03
2019-02-24T22:57:10.808Z,957.63
2019-02-24T22:59:41.879Z,944.77
2019-02-24T23:02:14.030Z,974.07
2019-02-24T23:04:45.134Z,985.00
2019-02-24T23:07:17.035Z,998.67
2019-02-24T23:09:49.213Z,999.90
2019-02-24T23:12:20.303Z,999.90
2019-02-24T23:14:51.406Z,997.23
2019-02-24T23:17:22.510Z,995.33
2019-02-24T23:19:53.791Z,999.83
2019-02-24T23:22:24.979Z,999.90
2019-02-24T23:24:57.832Z,997.17
2019-02-24T23:27:29.659Z,985.40
2019-02-24T23:30:01.840Z,999.90
2019-02-24T23:32:34.238Z,993.40
2019-02-24T23:35:06.895Z,996.33
2019-02-24T23:37:39.543Z,999.10
2019-02-24T23:40:10.801Z,991.63
2019-02-24T23:42:42.429Z,997.07
2019-02-24T23:45:13.935Z,996.97
2019-02-24T23:47:45.070Z,980.87
2019-02-24T23:50:16.149Z,993.57
2019-02-24T23:52:48.144Z,991.47
2019-02-24T23:55:19.207Z,986.33
2019-02-24T23:57:50.333Z,961.40
